Gifu, Japan
Current Conditions -  °F | °C
As of 3:10 PM on Thursday 18 Dec 2014 (Local Time) from RJNG Reporting Station
Few Clouds Few Clouds  
Wind Chill: 25°   Ceiling: Unl
Heat Index: 32°   Visibility: 6mi
Dew Point: 27°   Wind: 8mph
Humidity: 80%   Direction: 270°W
Pressure: 30.12"   Gusts: NA
Location:  35.42°N, 136.76°E
Report Text: RJNG 180610Z 27007KT 9999 FEW010 00/M03 Q1020 RMK 1CU010 A3013
Loading
Personal Weather Stations






























Interactive Weather Map New forecast layout! Learn more

10-Day Weather Forecast

Advertisements
Track Severe Weather on mobile